Jacques Jacob — ZDKG7 — position and weather

sailwx.info

Track history (hours):
 
Tides and Currents Weather Stations Pressure Air Temp Water Temp Dewpoint Dewpoint Depression Visibility Wind Speed Wind Dir Waves Ship Positions

Jacques Jacob

Last reported at 2016-Sep-27 00:31 UTC. Time now 2016-Sep-27 07:06 UTC.
Position N 37°05' W 000°01'.

Length 228 m; draft 10.3 m.

Type: Tanker. MMSI: 236612000.

Date/timePositionNaut miles runAvg speedWind from/ knotsBaromVisibWave heightAir tempDewpointWater temp
2016-Sep-27 00:31N 37°05' W 000°01'5212.9
2016-Sep-26 20:31N 37°24' E 000°59'62212.2
2016-Sep-24 17:33N 36°22' E 013°53'1313.0
2016-Sep-24 16:33N 36°16' E 014°08'2612.8
2016-Sep-24 14:33N 36°06' E 014°37'19 0.9
2016-Sep-23 16:12N 35°54' E 014°56'3 4.5
2016-Sep-23 15:32N 35°57' E 014°56'7 0.3
2016-Sep-22 12:27N 35°53' E 014°48'8 0.2
2016-Sep-20 17:33N 35°55' E 014°38'8 0.8
2016-Sep-20 07:18N 35°54' E 014°48'3 4.1
2016-Sep-20 06:33N 35°53' E 014°45'1 0.2
2016-Sep-20 02:05N 35°52' E 014°46'0 0.0
2016-Sep-19 16:29N 35°52' E 014°46'0 0.0
2016-Sep-19 14:32N 35°52' E 014°46'0 0.0
2016-Sep-19 13:20N 35°52' E 014°46'0 0.0
2016-Sep-19 09:26N 35°52' E 014°46'0 0.0
2016-Sep-19 07:23N 35°52' E 014°45'0 0.0
2016-Sep-18 15:31N 35°52' E 014°45'0 0.1
2016-Sep-18 14:31N 35°52' E 014°45'0 0.0
2016-Sep-18 10:31N 35°52' E 014°45'0 0.0
2016-Sep-18 09:28N 35°52' E 014°45'0 0.0
2016-Sep-18 02:31N 35°52' E 014°45'0 0.0
2016-Sep-18 01:31N 35°52' E 014°45'0 0.0
2016-Sep-18 00:31N 35°52' E 014°45'0 0.0
2016-Sep-17 22:31N 35°52' E 014°45'0 0.0
2016-Sep-17 21:31N 35°52' E 014°45'0 0.0
2016-Sep-17 20:28N 35°52' E 014°45'0 0.1
2016-Sep-17 19:16N 35°52' E 014°45'0 0.0
2016-Sep-17 13:28N 35°52' E 014°45'0 0.0
2016-Sep-17 10:31N 35°52' E 014°45'0 0.0
2016-Sep-17 09:25N 35°52' E 014°45'  
Track history (hours):
 
Tides and Currents Weather Stations Pressure Air Temp Water Temp Dewpoint Dewpoint Depression Visibility Wind Speed Wind Dir Waves Ship Positions

Jacques Jacob

Last reported at 2016-Sep-27 00:31 UTC. Time now 2016-Sep-27 07:06 UTC.
Position N 37°05' W 000°01'.

Length 228 m; draft 10.3 m.

Type: Tanker. MMSI: 236612000.

Date/timePositionNaut miles runAvg speedWind from/ knotsBaromVisibWave heightAir tempDewpointWater temp
2016-Sep-27 00:31N 37°05' W 000°01'5212.9
2016-Sep-26 20:31N 37°24' E 000°59'62212.2
2016-Sep-24 17:33N 36°22' E 013°53'1313.0
2016-Sep-24 16:33N 36°16' E 014°08'2612.8
2016-Sep-24 14:33N 36°06' E 014°37'19 0.9
2016-Sep-23 16:12N 35°54' E 014°56'3 4.5
2016-Sep-23 15:32N 35°57' E 014°56'7 0.3
2016-Sep-22 12:27N 35°53' E 014°48'8 0.2
2016-Sep-20 17:33N 35°55' E 014°38'8 0.8
2016-Sep-20 07:18N 35°54' E 014°48'3 4.1
2016-Sep-20 06:33N 35°53' E 014°45'1 0.2
2016-Sep-20 02:05N 35°52' E 014°46'0 0.0
2016-Sep-19 16:29N 35°52' E 014°46'0 0.0
2016-Sep-19 14:32N 35°52' E 014°46'0 0.0
2016-Sep-19 13:20N 35°52' E 014°46'0 0.0
2016-Sep-19 09:26N 35°52' E 014°46'0 0.0
2016-Sep-19 07:23N 35°52' E 014°45'0 0.0
2016-Sep-18 15:31N 35°52' E 014°45'0 0.1
2016-Sep-18 14:31N 35°52' E 014°45'0 0.0
2016-Sep-18 10:31N 35°52' E 014°45'0 0.0
2016-Sep-18 09:28N 35°52' E 014°45'0 0.0
2016-Sep-18 02:31N 35°52' E 014°45'0 0.0
2016-Sep-18 01:31N 35°52' E 014°45'0 0.0
2016-Sep-18 00:31N 35°52' E 014°45'0 0.0
2016-Sep-17 22:31N 35°52' E 014°45'0 0.0
2016-Sep-17 21:31N 35°52' E 014°45'0 0.0
2016-Sep-17 20:28N 35°52' E 014°45'0 0.1
2016-Sep-17 19:16N 35°52' E 014°45'0 0.0
2016-Sep-17 13:28N 35°52' E 014°45'0 0.0
2016-Sep-17 10:31N 35°52' E 014°45'0 0.0
2016-Sep-17 09:25N 35°52' E 014°45'  

Dump ship's entire track history